createdAt,value
2018-07-28T00:01:14.589Z,8.53
2018-07-28T00:03:42.771Z,7.43
2018-07-28T00:06:10.964Z,8.10
2018-07-28T00:08:39.151Z,7.60
2018-07-28T00:11:07.329Z,7.50
2018-07-28T00:13:35.521Z,7.60
2018-07-28T00:16:03.471Z,8.00
2018-07-28T00:18:31.670Z,8.80
2018-07-28T00:20:59.855Z,7.73
2018-07-28T00:23:28.019Z,6.83
2018-07-28T00:26:01.676Z,7.87
2018-07-28T00:28:29.849Z,8.30
2018-07-28T00:30:58.014Z,8.57
2018-07-28T00:33:26.178Z,7.30
2018-07-28T00:35:54.353Z,7.73
2018-07-28T00:38:22.513Z,8.67
2018-07-28T00:40:50.705Z,7.40
2018-07-28T00:43:18.857Z,7.40
2018-07-28T00:45:47.025Z,7.40
2018-07-28T00:48:15.181Z,7.73
2018-07-28T00:50:43.364Z,7.80
2018-07-28T00:53:11.513Z,7.23
2018-07-28T00:55:39.668Z,7.87
2018-07-28T00:58:08.090Z,8.57
2018-07-28T01:00:36.274Z,8.93
2018-07-28T01:03:04.444Z,8.17
2018-07-28T01:05:32.616Z,8.13
2018-07-28T01:08:00.794Z,8.57
2018-07-28T01:10:28.953Z,8.83
2018-07-28T01:12:57.126Z,9.27
2018-07-28T01:15:25.307Z,8.80
2018-07-28T01:17:53.468Z,8.10
2018-07-28T01:20:21.649Z,9.17
2018-07-28T01:22:49.808Z,8.37
2018-07-28T01:25:17.976Z,8.37
2018-07-28T01:27:46.149Z,7.83
2018-07-28T01:30:18.537Z,8.07
2018-07-28T01:32:46.732Z,8.80
2018-07-28T01:35:14.897Z,8.70
2018-07-28T01:37:43.058Z,8.10
2018-07-28T01:40:11.220Z,8.80
2018-07-28T01:42:39.380Z,9.23
2018-07-28T01:45:08.005Z,9.27
2018-07-28T01:47:36.177Z,8.57
2018-07-28T01:50:05.621Z,8.87
2018-07-28T01:52:33.784Z,8.20
2018-07-28T01:55:01.961Z,8.77
2018-07-28T01:57:30.149Z,8.90
2018-07-28T01:59:58.325Z,7.77
2018-07-28T02:02:26.685Z,8.97
2018-07-28T02:04:54.859Z,9.07
2018-07-28T02:07:23.087Z,8.50
2018-07-28T02:09:51.043Z,9.30
2018-07-28T02:12:19.258Z,8.80
2018-07-28T02:14:47.437Z,9.53
2018-07-28T02:17:15.370Z,9.47
2018-07-28T02:19:43.540Z,8.97
2018-07-28T02:22:11.754Z,9.13
2018-07-28T02:24:39.967Z,8.93
2018-07-28T02:27:08.142Z,9.10
2018-07-28T02:29:36.304Z,8.43
2018-07-28T02:32:04.524Z,8.33
2018-07-28T02:34:32.690Z,8.30
2018-07-28T02:37:00.858Z,8.70
2018-07-28T02:39:29.034Z,9.27
2018-07-28T02:41:57.215Z,10.03
2018-07-28T02:44:25.401Z,8.23
2018-07-28T02:46:53.582Z,8.57
2018-07-28T02:49:21.778Z,9.30
2018-07-28T02:51:50.032Z,9.27
2018-07-28T02:54:18.198Z,8.80
2018-07-28T02:56:46.382Z,8.60
2018-07-28T02:59:14.561Z,8.33
2018-07-28T03:01:42.783Z,8.63
2018-07-28T03:04:10.988Z,9.10
2018-07-28T03:06:39.158Z,9.63
2018-07-28T03:09:09.913Z,9.30
2018-07-28T03:11:38.708Z,8.77
2018-07-28T03:14:06.978Z,9.40
2018-07-28T03:16:35.144Z,8.83
2018-07-28T03:19:03.368Z,8.70
2018-07-28T03:21:31.553Z,7.93
2018-07-28T03:23:59.730Z,9.07
2018-07-28T03:26:27.889Z,9.13
2018-07-28T03:28:56.070Z,8.57
2018-07-28T03:31:24.279Z,8.43
2018-07-28T03:33:52.446Z,8.73
2018-07-28T03:36:20.618Z,8.10
2018-07-28T03:38:48.839Z,8.07
2018-07-28T03:41:17.057Z,8.90
2018-07-28T03:43:45.238Z,9.40
2018-07-28T03:46:13.417Z,7.80
2018-07-28T03:48:41.606Z,9.27
2018-07-28T03:51:09.786Z,9.50
2018-07-28T03:53:38.048Z,8.50
2018-07-28T03:56:06.219Z,8.37
2018-07-28T03:58:34.395Z,9.67
2018-07-28T04:01:02.567Z,9.07
2018-07-28T04:03:30.775Z,9.30
2018-07-28T04:05:58.946Z,9.20
2018-07-28T04:08:27.140Z,9.03
2018-07-28T04:10:55.339Z,9.47
2018-07-28T04:13:23.514Z,7.83
2018-07-28T04:15:51.686Z,8.83
2018-07-28T04:18:19.861Z,9.17
2018-07-28T04:20:48.035Z,8.40
2018-07-28T04:23:16.200Z,9.23
2018-07-28T04:25:44.407Z,9.50
2018-07-28T04:28:12.590Z,9.23
2018-07-28T04:30:40.771Z,8.60
2018-07-28T04:33:08.943Z,9.57
2018-07-28T04:35:37.151Z,9.70
2018-07-28T04:38:05.499Z,9.37
2018-07-28T04:40:33.691Z,8.87
2018-07-28T04:43:01.901Z,9.63
2018-07-28T04:45:30.089Z,9.37
2018-07-28T04:47:58.274Z,9.33
2018-07-28T04:50:26.425Z,8.40
2018-07-28T04:52:54.622Z,8.50
2018-07-28T04:55:22.794Z,9.00
2018-07-28T04:57:50.976Z,9.17
2018-07-28T05:00:19.167Z,9.07
2018-07-28T05:02:47.341Z,7.93
2018-07-28T05:05:15.525Z,9.60
2018-07-28T05:07:43.740Z,9.27
2018-07-28T05:10:11.880Z,9.50
2018-07-28T05:12:40.070Z,9.00
2018-07-28T05:15:08.228Z,8.90
2018-07-28T05:17:36.398Z,8.50
2018-07-28T05:20:04.423Z,9.03
2018-07-28T05:22:32.568Z,8.73
2018-07-28T05:25:00.734Z,9.70
2018-07-28T05:27:28.911Z,9.80
2018-07-28T05:29:57.085Z,9.30
2018-07-28T05:32:25.260Z,9.10
2018-07-28T05:34:53.475Z,9.55
2018-07-28T05:37:21.629Z,9.00
2018-07-28T05:39:49.806Z,8.73
2018-07-28T05:42:17.967Z,8.60
2018-07-28T05:44:46.145Z,8.83
2018-07-28T05:47:14.321Z,8.95
2018-07-28T05:49:42.489Z,8.85
2018-07-28T05:52:10.650Z,9.30
2018-07-28T05:54:38.825Z,9.13
2018-07-28T05:57:07.031Z,9.10
2018-07-28T05:59:35.231Z,9.30
2018-07-28T06:02:03.447Z,9.10
2018-07-28T06:04:31.606Z,8.70
2018-07-28T06:06:59.786Z,9.30
2018-07-28T06:09:27.970Z,9.60
2018-07-28T06:11:56.139Z,9.00
2018-07-28T06:14:24.356Z,9.20
2018-07-28T06:16:52.522Z,8.80
2018-07-28T06:19:20.713Z,8.28
2018-07-28T06:21:48.874Z,7.83
2018-07-28T06:24:17.091Z,8.37
2018-07-28T06:26:45.245Z,8.20
2018-07-28T06:29:13.448Z,8.33
2018-07-28T06:31:41.644Z,7.72
2018-07-28T06:34:09.786Z,7.50
2018-07-28T06:36:37.954Z,8.15
2018-07-28T06:39:09.106Z,7.42
2018-07-28T06:41:37.270Z,7.10
2018-07-28T06:44:05.528Z,7.47
2018-07-28T06:46:33.702Z,7.20
2018-07-28T06:49:01.882Z,7.00
2018-07-28T06:51:30.104Z,8.05
2018-07-28T06:53:58.270Z,7.70
2018-07-28T06:56:26.443Z,7.85
2018-07-28T06:58:54.630Z,8.40
2018-07-28T07:01:22.806Z,7.83
2018-07-28T07:03:50.958Z,8.00
2018-07-28T07:06:19.140Z,8.20
2018-07-28T07:08:47.314Z,8.15
2018-07-28T07:11:15.470Z,7.60
2018-07-28T07:13:43.672Z,7.50
2018-07-28T07:16:11.887Z,7.60
2018-07-28T07:18:40.091Z,7.15
2018-07-28T07:21:08.266Z,7.40
2018-07-28T07:23:36.459Z,7.47
2018-07-28T07:26:04.638Z,8.30
2018-07-28T07:28:32.807Z,6.80
2018-07-28T07:31:00.969Z,6.80
2018-07-28T07:33:29.167Z,6.65
2018-07-28T07:35:57.384Z,6.42
2018-07-28T07:38:25.542Z,6.70
2018-07-28T07:40:53.715Z,7.17
2018-07-28T07:43:21.905Z,6.90
2018-07-28T07:45:50.083Z,6.20
2018-07-28T07:48:18.279Z,5.60
2018-07-28T07:50:46.441Z,6.53
2018-07-28T07:53:14.644Z,6.62
2018-07-28T07:55:42.586Z,6.50
2018-07-28T07:58:10.748Z,6.08
2018-07-28T08:00:38.946Z,6.17
2018-07-28T08:03:07.151Z,6.00
2018-07-28T08:05:35.351Z,5.97
2018-07-28T08:08:03.571Z,6.00
2018-07-28T08:10:31.743Z,5.50
2018-07-28T08:12:59.901Z,5.60
2018-07-28T08:15:28.106Z,5.30
2018-07-28T08:17:56.319Z,5.67
2018-07-28T08:20:24.498Z,5.30
2018-07-28T08:22:52.697Z,5.22
2018-07-28T08:25:20.883Z,5.70
2018-07-28T08:27:49.091Z,5.28
2018-07-28T08:30:17.291Z,5.30
2018-07-28T08:32:45.494Z,5.60
2018-07-28T08:35:13.678Z,5.00
2018-07-28T08:37:41.927Z,5.08
2018-07-28T08:40:10.103Z,5.20
2018-07-28T08:42:38.288Z,5.65
2018-07-28T08:45:06.646Z,5.20
2018-07-28T08:47:34.903Z,5.10
2018-07-28T08:50:03.155Z,4.83
2018-07-28T08:52:31.346Z,5.20
2018-07-28T08:54:59.538Z,4.90
2018-07-28T08:57:27.755Z,5.20
2018-07-28T08:59:55.924Z,5.00
2018-07-28T09:02:24.103Z,5.40
2018-07-28T09:04:52.298Z,4.87
2018-07-28T09:07:20.478Z,5.17
2018-07-28T09:09:48.656Z,4.57
2018-07-28T09:12:16.902Z,5.40
2018-07-28T09:14:45.078Z,5.20
2018-07-28T09:17:13.288Z,5.23
2018-07-28T09:19:41.482Z,5.17
2018-07-28T09:22:09.642Z,5.40
2018-07-28T09:24:37.806Z,5.22
2018-07-28T09:27:05.999Z,5.40
2018-07-28T09:29:34.160Z,5.20
2018-07-28T09:32:02.321Z,4.92
2018-07-28T09:34:30.482Z,4.92
2018-07-28T09:36:58.745Z,5.30
2018-07-28T09:39:26.876Z,12.73
2018-07-28T09:41:55.507Z,8.20
2018-07-28T09:44:23.658Z,8.18
2018-07-28T09:46:51.882Z,9.13
2018-07-28T09:49:20.052Z,6.85
2018-07-28T09:51:48.214Z,9.68
2018-07-28T09:54:16.398Z,9.88
2018-07-28T09:56:44.587Z,7.40
2018-07-28T09:59:12.791Z,7.75
2018-07-28T10:01:40.991Z,5.90
2018-07-28T10:04:08.929Z,5.22
2018-07-28T10:06:37.102Z,4.97
2018-07-28T10:09:08.595Z,5.60
2018-07-28T10:11:36.810Z,5.53
2018-07-28T10:14:05.055Z,5.42
2018-07-28T10:16:33.218Z,5.40
2018-07-28T10:19:01.419Z,5.55
2018-07-28T10:21:29.635Z,7.93
2018-07-28T10:23:57.839Z,6.20
2018-07-28T10:26:26.042Z,5.50
2018-07-28T10:28:53.986Z,5.80
2018-07-28T10:31:22.170Z,5.97
2018-07-28T10:33:50.490Z,5.60
2018-07-28T10:36:18.722Z,5.70
2018-07-28T10:38:46.918Z,5.75
2018-07-28T10:41:15.098Z,6.08
2018-07-28T10:43:43.274Z,5.50
2018-07-28T10:46:11.441Z,5.60
2018-07-28T10:48:39.640Z,6.00
2018-07-28T10:51:08.073Z,6.55
2018-07-28T10:53:36.269Z,6.17
2018-07-28T10:56:04.471Z,6.60
2018-07-28T10:58:32.649Z,5.77
2018-07-28T11:01:00.842Z,6.10
2018-07-28T11:03:29.034Z,5.97
2018-07-28T11:06:03.885Z,6.12
2018-07-28T11:08:32.073Z,6.60
2018-07-28T11:11:00.250Z,6.30
2018-07-28T11:13:28.442Z,6.20
2018-07-28T11:15:56.630Z,5.63
2018-07-28T11:18:24.832Z,6.05
2018-07-28T11:20:53.009Z,6.00
2018-07-28T11:23:32.803Z,5.50
2018-07-28T11:26:01.167Z,5.75
2018-07-28T11:28:29.324Z,6.33
2018-07-28T11:30:57.518Z,5.87
2018-07-28T11:33:37.068Z,5.97
2018-07-28T11:36:16.917Z,5.28
2018-07-28T11:38:56.380Z,5.33
2018-07-28T11:41:36.081Z,5.08
2018-07-28T11:44:15.596Z,5.28
2018-07-28T11:46:43.785Z,5.80
2018-07-28T11:49:11.952Z,5.40
2018-07-28T11:51:40.162Z,5.20
2018-07-28T11:54:08.371Z,5.00
2018-07-28T11:56:36.550Z,5.12
2018-07-28T11:59:04.761Z,5.50
2018-07-28T12:01:32.979Z,4.83
2018-07-28T12:04:01.160Z,5.80
2018-07-28T12:06:29.358Z,5.70
2018-07-28T12:08:57.548Z,5.40
2018-07-28T12:11:25.768Z,5.30
2018-07-28T12:13:53.957Z,4.80
2018-07-28T12:16:22.134Z,5.00
2018-07-28T12:18:50.331Z,4.70
2018-07-28T12:21:18.479Z,5.17
2018-07-28T12:23:46.629Z,4.72
2018-07-28T12:26:14.814Z,4.70
2018-07-28T12:28:42.986Z,4.20
2018-07-28T12:31:11.183Z,4.70
2018-07-28T12:33:39.103Z,4.45
2018-07-28T12:36:07.742Z,4.50
2018-07-28T12:38:35.943Z,3.70
2018-07-28T12:41:04.154Z,4.30
2018-07-28T12:43:32.315Z,4.70
2018-07-28T12:46:00.494Z,4.40
2018-07-28T12:48:28.649Z,4.60
2018-07-28T12:50:56.823Z,3.60
2018-07-28T12:53:24.992Z,4.30
2018-07-28T12:55:53.235Z,4.30
2018-07-28T12:58:21.406Z,4.30
2018-07-28T13:00:49.578Z,3.95
2018-07-28T13:03:17.734Z,4.20
2018-07-28T13:05:45.905Z,3.80
2018-07-28T13:08:14.078Z,3.63
2018-07-28T13:10:42.292Z,3.60
2018-07-28T13:13:10.210Z,2.70
2018-07-28T13:15:38.399Z,3.00
2018-07-28T13:18:06.583Z,2.70
2018-07-28T13:20:34.758Z,2.72
2018-07-28T13:23:02.938Z,2.72
2018-07-28T13:25:31.106Z,2.93
2018-07-28T13:27:59.294Z,3.05
2018-07-28T13:30:27.470Z,3.10
2018-07-28T13:32:55.953Z,3.30
2018-07-28T13:35:23.929Z,3.52
2018-07-28T13:37:52.101Z,3.90
2018-07-28T13:40:20.278Z,3.90
2018-07-28T13:42:48.490Z,3.80
2018-07-28T13:45:16.670Z,4.00
2018-07-28T13:47:44.889Z,4.33
2018-07-28T13:50:12.997Z,4.22
2018-07-28T13:52:41.163Z,4.10
2018-07-28T13:55:09.336Z,3.95
2018-07-28T13:57:37.534Z,4.20
2018-07-28T14:00:06.627Z,3.80
2018-07-28T14:02:34.807Z,4.20
2018-07-28T14:05:02.991Z,3.62
2018-07-28T14:07:31.150Z,3.95
2018-07-28T14:09:59.361Z,3.90
2018-07-28T14:12:27.544Z,3.90
2018-07-28T14:14:55.768Z,3.70
2018-07-28T14:17:23.892Z,4.00
2018-07-28T14:19:52.051Z,4.10
2018-07-28T14:22:20.227Z,4.33
2018-07-28T14:24:48.389Z,4.10
2018-07-28T14:27:16.558Z,4.28
2018-07-28T14:29:44.718Z,4.30
2018-07-28T14:32:12.894Z,4.08
2018-07-28T14:34:41.090Z,4.50
2018-07-28T14:37:09.269Z,4.00
2018-07-28T14:39:37.426Z,4.20
2018-07-28T14:42:05.366Z,4.60
2018-07-28T14:44:33.543Z,4.40
2018-07-28T14:47:01.710Z,4.50
2018-07-28T14:49:29.906Z,4.70
2018-07-28T14:51:58.091Z,4.73
2018-07-28T14:54:26.291Z,5.08
2018-07-28T14:56:54.448Z,4.35
2018-07-28T14:59:22.643Z,4.65
2018-07-28T15:01:50.838Z,5.30
2018-07-28T15:04:19.026Z,5.12
2018-07-28T15:06:47.212Z,5.00
2018-07-28T15:09:15.388Z,5.20
2018-07-28T15:11:43.569Z,5.00
2018-07-28T15:14:11.797Z,5.55
2018-07-28T15:16:40.003Z,5.10
2018-07-28T15:19:08.166Z,4.77
2018-07-28T15:21:36.372Z,4.80
2018-07-28T15:24:04.501Z,4.70
2018-07-28T15:26:32.703Z,5.33
2018-07-28T15:29:00.876Z,5.20
2018-07-28T15:31:29.043Z,5.00
2018-07-28T15:33:57.241Z,5.70
2018-07-28T15:36:25.402Z,5.15
2018-07-28T15:38:53.572Z,5.40
2018-07-28T15:41:21.787Z,4.97
2018-07-28T15:43:49.954Z,4.80
2018-07-28T15:46:18.127Z,4.47
2018-07-28T15:48:46.335Z,5.00
2018-07-28T15:51:14.492Z,4.60
2018-07-28T15:53:42.691Z,4.30
2018-07-28T15:56:10.959Z,4.37
2018-07-28T15:58:39.082Z,4.45
2018-07-28T16:01:07.271Z,4.40
2018-07-28T16:03:35.462Z,4.25
2018-07-28T16:06:03.732Z,4.40
2018-07-28T16:08:31.783Z,3.60
2018-07-28T16:10:59.976Z,4.50
2018-07-28T16:13:28.183Z,4.63
2018-07-28T16:15:56.362Z,4.10
2018-07-28T16:18:24.544Z,3.80
2018-07-28T16:20:52.709Z,4.40
2018-07-28T16:23:20.928Z,4.65
2018-07-28T16:25:49.076Z,4.70
2018-07-28T16:28:17.237Z,4.37
2018-07-28T16:30:45.425Z,4.30
2018-07-28T16:33:13.619Z,4.00
2018-07-28T16:35:41.765Z,4.67
2018-07-28T16:38:10.027Z,4.35
2018-07-28T16:40:38.139Z,4.50
2018-07-28T16:43:06.343Z,4.83
2018-07-28T16:45:34.294Z,4.60
2018-07-28T16:48:02.458Z,4.00
2018-07-28T16:50:30.674Z,4.40
2018-07-28T16:52:58.823Z,4.10
2018-07-28T16:55:27.015Z,4.30
2018-07-28T16:57:55.188Z,4.22
2018-07-28T17:00:23.378Z,4.40
2018-07-28T17:02:51.570Z,4.40
2018-07-28T17:05:19.762Z,4.15
2018-07-28T17:07:47.959Z,4.50
2018-07-28T17:10:16.134Z,4.80
2018-07-28T17:12:44.290Z,4.83
2018-07-28T17:15:12.477Z,4.53
2018-07-28T17:17:40.660Z,4.80
2018-07-28T17:20:08.874Z,4.53
2018-07-28T17:22:37.152Z,4.50
2018-07-28T17:25:05.285Z,5.30
2018-07-28T17:27:33.490Z,5.10
2018-07-28T17:30:01.662Z,5.60
2018-07-28T17:32:29.923Z,4.70
2018-07-28T17:34:58.432Z,5.17
2018-07-28T17:37:26.930Z,5.40
2018-07-28T17:39:55.563Z,5.30
2018-07-28T17:42:23.747Z,5.37
2018-07-28T17:44:51.960Z,4.92
2018-07-28T17:47:20.146Z,5.03
2018-07-28T17:49:48.352Z,5.40
2018-07-28T17:52:16.549Z,4.90
2018-07-28T17:54:44.745Z,5.20
2018-07-28T17:57:12.987Z,4.97
2018-07-28T17:59:41.179Z,5.35
2018-07-28T18:02:09.367Z,5.17
2018-07-28T18:04:37.579Z,5.10
2018-07-28T18:07:05.764Z,5.20
2018-07-28T18:09:33.941Z,5.12
2018-07-28T18:12:02.124Z,5.60
2018-07-28T18:14:30.301Z,5.15
2018-07-28T18:16:58.456Z,5.47
2018-07-28T18:19:26.681Z,5.90
2018-07-28T18:21:54.814Z,5.35
2018-07-28T18:24:22.980Z,5.33
2018-07-28T18:26:51.163Z,5.60
2018-07-28T18:29:19.357Z,5.70
2018-07-28T18:31:47.543Z,4.75
2018-07-28T18:34:15.809Z,5.40
2018-07-28T18:36:44.030Z,5.50
2018-07-28T18:39:12.744Z,5.40
2018-07-28T18:41:40.968Z,5.75
2018-07-28T18:44:09.642Z,5.10
2018-07-28T18:46:38.033Z,5.95
2018-07-28T18:49:06.224Z,5.70
2018-07-28T18:51:34.422Z,6.10
2018-07-28T18:54:02.591Z,5.58
2018-07-28T18:56:30.798Z,5.90
2018-07-28T18:58:58.937Z,5.67
2018-07-28T19:01:27.110Z,5.60
2018-07-28T19:03:55.280Z,5.55
2018-07-28T19:06:23.460Z,5.67
2018-07-28T19:08:57.048Z,6.00
2018-07-28T19:11:25.216Z,5.80
2018-07-28T19:13:58.889Z,6.70
2018-07-28T19:16:27.050Z,5.80
2018-07-28T19:19:00.726Z,6.22
2018-07-28T19:21:28.913Z,6.28
2018-07-28T19:24:03.286Z,5.87
2018-07-28T19:26:32.182Z,5.87
2018-07-28T19:29:05.859Z,6.17
2018-07-28T19:31:34.026Z,6.70
2018-07-28T19:34:02.240Z,6.50
2018-07-28T19:36:35.918Z,6.08
2018-07-28T19:39:05.864Z,6.20
2018-07-28T19:41:39.672Z,6.40
2018-07-28T19:44:07.820Z,6.20
2018-07-28T19:46:36.006Z,5.93
2018-07-28T19:49:04.181Z,6.40
2018-07-28T19:51:32.398Z,5.85
2018-07-28T19:54:00.660Z,5.70
2018-07-28T19:56:28.797Z,6.22
2018-07-28T19:58:56.964Z,6.05
2018-07-28T20:01:25.134Z,6.62
2018-07-28T20:03:53.327Z,6.20
2018-07-28T20:06:21.516Z,6.78
2018-07-28T20:08:49.892Z,6.22
2018-07-28T20:11:18.056Z,6.67
2018-07-28T20:13:46.318Z,6.80
2018-07-28T20:16:14.469Z,7.00
2018-07-28T20:18:42.642Z,7.10
2018-07-28T20:21:10.806Z,6.75
2018-07-28T20:23:38.987Z,7.20
2018-07-28T20:26:07.523Z,7.50
2018-07-28T20:28:35.698Z,7.37
2018-07-28T20:31:03.903Z,6.92
2018-07-28T20:33:32.099Z,6.80
2018-07-28T20:36:00.299Z,6.80
2018-07-28T20:38:28.509Z,6.90
2018-07-28T20:40:56.682Z,7.07
2018-07-28T20:43:24.844Z,7.05
2018-07-28T20:45:53.036Z,6.47
2018-07-28T20:48:21.273Z,7.30
2018-07-28T20:50:49.385Z,7.00
2018-07-28T20:53:17.574Z,7.00
2018-07-28T20:55:45.729Z,6.97
2018-07-28T20:58:13.911Z,6.90
2018-07-28T21:00:42.089Z,7.35
2018-07-28T21:03:10.264Z,7.90
2018-07-28T21:05:38.467Z,7.43
2018-07-28T21:08:06.620Z,7.22
2018-07-28T21:10:34.790Z,6.60
2018-07-28T21:13:02.995Z,6.93
2018-07-28T21:15:31.212Z,7.58
2018-07-28T21:17:59.404Z,7.87
2018-07-28T21:20:27.628Z,8.20
2018-07-28T21:22:55.756Z,7.80
2018-07-28T21:25:23.940Z,7.85
2018-07-28T21:27:52.159Z,7.20
2018-07-28T21:30:20.359Z,7.45
2018-07-28T21:32:48.620Z,7.80
2018-07-28T21:35:16.818Z,6.85
2018-07-28T21:37:45.040Z,7.20
2018-07-28T21:40:13.246Z,7.35
2018-07-28T21:42:41.483Z,7.60
2018-07-28T21:45:09.668Z,7.70
2018-07-28T21:50:12.509Z,7.72
2018-07-28T21:52:40.670Z,7.90
2018-07-28T21:55:08.841Z,7.42
2018-07-28T21:57:37.021Z,7.70
2018-07-28T22:00:07.418Z,7.30
2018-07-28T22:02:35.622Z,7.42
2018-07-28T22:05:03.838Z,7.37
2018-07-28T22:07:31.971Z,7.45
2018-07-28T22:10:00.141Z,7.47
2018-07-28T22:12:28.627Z,7.77
2018-07-28T22:14:56.854Z,7.70
2018-07-28T22:17:25.075Z,7.60
2018-07-28T22:19:53.303Z,7.67
2018-07-28T22:22:21.472Z,7.28
2018-07-28T22:24:49.723Z,7.93
2018-07-28T22:27:17.914Z,7.20
2018-07-28T22:29:46.122Z,7.55
2018-07-28T22:32:14.339Z,8.05
2018-07-28T22:34:42.515Z,7.17
2018-07-28T22:37:11.525Z,7.47
2018-07-28T22:39:39.721Z,7.60
2018-07-28T22:42:07.946Z,7.50
2018-07-28T22:44:36.177Z,7.80
2018-07-28T22:47:04.420Z,8.10
2018-07-28T22:49:32.643Z,7.50
2018-07-28T22:52:00.862Z,7.97
2018-07-28T22:54:29.037Z,7.40
2018-07-28T22:56:57.238Z,7.20
2018-07-28T22:59:25.435Z,7.97
2018-07-28T23:01:54.347Z,7.57
2018-07-28T23:04:22.575Z,7.45
2018-07-28T23:06:50.725Z,7.80
2018-07-28T23:09:18.915Z,7.75
2018-07-28T23:11:47.102Z,7.22
2018-07-28T23:14:15.304Z,7.40
2018-07-28T23:16:43.518Z,7.80
2018-07-28T23:19:11.731Z,7.12
2018-07-28T23:21:39.925Z,8.00
2018-07-28T23:24:08.142Z,7.00
2018-07-28T23:26:36.305Z,7.40
2018-07-28T23:29:04.530Z,7.65
2018-07-28T23:31:32.714Z,7.08
2018-07-28T23:34:00.899Z,7.50
2018-07-28T23:36:29.073Z,7.50
2018-07-28T23:38:57.282Z,7.15
2018-07-28T23:41:25.479Z,7.28
2018-07-28T23:43:53.641Z,7.50
2018-07-28T23:46:21.843Z,7.30
2018-07-28T23:48:50.026Z,7.00
2018-07-28T23:51:18.219Z,7.20
2018-07-28T23:53:46.399Z,7.10
2018-07-28T23:56:14.620Z,7.60
2018-07-28T23:58:43.082Z,7.67
